sensor_id;sensor_type;location;lat;lon;timestamp;temperature;humidity
22678;DHT22;26259;50.214;18.620;2023-04-24T00:01:13;9.30;99.90
22678;DHT22;26259;50.214;18.620;2023-04-24T00:03:40;9.30;99.90
22678;DHT22;26259;50.214;18.620;2023-04-24T00:06:06;9.30;99.90
22678;DHT22;26259;50.214;18.620;2023-04-24T00:08:34;9.30;99.90
22678;DHT22;26259;50.214;18.620;2023-04-24T00:11:00;9.30;99.90
22678;DHT22;26259;50.214;18.620;2023-04-24T00:13:25;9.40;99.90
22678;DHT22;26259;50.214;18.620;2023-04-24T00:15:51;9.40;99.90
22678;DHT22;26259;50.214;18.620;2023-04-24T00:18:17;9.40;99.90
22678;DHT22;26259;50.214;18.620;2023-04-24T00:20:42;9.50;99.90
22678;DHT22;26259;50.214;18.620;2023-04-24T00:23:09;9.50;99.90
22678;DHT22;26259;50.214;18.620;2023-04-24T00:25:34;9.50;99.90
22678;DHT22;26259;50.214;18.620;2023-04-24T00:28:00;9.50;99.90
22678;DHT22;26259;50.214;18.620;2023-04-24T00:30:25;9.50;99.90
22678;DHT22;26259;50.214;18.620;2023-04-24T00:32:51;9.50;99.90
22678;DHT22;26259;50.214;18.620;2023-04-24T00:35:17;9.50;99.90
22678;DHT22;26259;50.214;18.620;2023-04-24T00:37:42;9.50;99.90
22678;DHT22;26259;50.214;18.620;2023-04-24T00:40:08;9.50;99.90
22678;DHT22;26259;50.214;18.620;2023-04-24T00:42:34;9.50;99.90
22678;DHT22;26259;50.214;18.620;2023-04-24T00:45:00;9.60;99.90
22678;DHT22;26259;50.214;18.620;2023-04-24T00:47:26;9.60;99.90
22678;DHT22;26259;50.214;18.620;2023-04-24T00:49:53;9.60;99.90
22678;DHT22;26259;50.214;18.620;2023-04-24T00:52:18;9.60;99.90
22678;DHT22;26259;50.214;18.620;2023-04-24T00:54:45;9.60;99.90
22678;DHT22;26259;50.214;18.620;2023-04-24T00:57:11;9.60;99.90
22678;DHT22;26259;50.214;18.620;2023-04-24T00:59:38;9.60;99.90
22678;DHT22;26259;50.214;18.620;2023-04-24T01:02:04;9.60;99.90
22678;DHT22;26259;50.214;18.620;2023-04-24T01:04:31;9.60;99.90
22678;DHT22;26259;50.214;18.620;2023-04-24T01:06:56;9.60;99.90
22678;DHT22;26259;50.214;18.620;2023-04-24T01:09:23;9.60;99.90
22678;DHT22;26259;50.214;18.620;2023-04-24T01:11:49;9.60;99.90
22678;DHT22;26259;50.214;18.620;2023-04-24T01:14:15;9.60;99.90
22678;DHT22;26259;50.214;18.620;2023-04-24T01:16:41;9.60;99.90
22678;DHT22;26259;50.214;18.620;2023-04-24T01:19:07;9.60;99.90
22678;DHT22;26259;50.214;18.620;2023-04-24T01:21:36;9.60;99.90
22678;DHT22;26259;50.214;18.620;2023-04-24T01:24:06;9.60;99.90
22678;DHT22;26259;50.214;18.620;2023-04-24T01:26:31;9.70;99.90
22678;DHT22;26259;50.214;18.620;2023-04-24T01:28:58;9.70;99.90
22678;DHT22;26259;50.214;18.620;2023-04-24T01:31:23;9.70;99.90
22678;DHT22;26259;50.214;18.620;2023-04-24T01:33:50;9.70;99.90
22678;DHT22;26259;50.214;18.620;2023-04-24T01:36:16;9.70;99.90
22678;DHT22;26259;50.214;18.620;2023-04-24T01:38:42;9.70;99.90
22678;DHT22;26259;50.214;18.620;2023-04-24T01:41:07;9.70;99.90
22678;DHT22;26259;50.214;18.620;2023-04-24T01:43:33;9.70;99.90
22678;DHT22;26259;50.214;18.620;2023-04-24T01:45:59;9.70;99.90
22678;DHT22;26259;50.214;18.620;2023-04-24T01:48:24;9.70;99.90
22678;DHT22;26259;50.214;18.620;2023-04-24T01:50:50;9.70;99.90
22678;DHT22;26259;50.214;18.620;2023-04-24T01:53:16;9.70;99.90
22678;DHT22;26259;50.214;18.620;2023-04-24T01:55:41;9.70;99.90
22678;DHT22;26259;50.214;18.620;2023-04-24T01:58:07;9.80;99.90
22678;DHT22;26259;50.214;18.620;2023-04-24T02:00:33;9.80;99.90
22678;DHT22;26259;50.214;18.620;2023-04-24T02:02:58;9.80;99.90
22678;DHT22;26259;50.214;18.620;2023-04-24T02:05:24;9.80;99.90
22678;DHT22;26259;50.214;18.620;2023-04-24T02:07:49;9.80;99.90
22678;DHT22;26259;50.214;18.620;2023-04-24T02:10:15;9.80;99.90
22678;DHT22;26259;50.214;18.620;2023-04-24T02:12:41;9.80;99.90
22678;DHT22;26259;50.214;18.620;2023-04-24T02:15:06;9.80;99.90
22678;DHT22;26259;50.214;18.620;2023-04-24T02:17:32;9.80;99.90
22678;DHT22;26259;50.214;18.620;2023-04-24T02:19:57;9.90;99.90
22678;DHT22;26259;50.214;18.620;2023-04-24T02:22:23;9.90;99.90
22678;DHT22;26259;50.214;18.620;2023-04-24T02:24:49;9.90;99.90
22678;DHT22;26259;50.214;18.620;2023-04-24T02:27:15;9.90;99.90
22678;DHT22;26259;50.214;18.620;2023-04-24T02:29:40;9.90;99.90
22678;DHT22;26259;50.214;18.620;2023-04-24T02:32:06;9.90;99.90
22678;DHT22;26259;50.214;18.620;2023-04-24T02:34:31;10.00;99.90
22678;DHT22;26259;50.214;18.620;2023-04-24T02:36:57;10.00;99.90
22678;DHT22;26259;50.214;18.620;2023-04-24T02:39:23;10.00;99.90
22678;DHT22;26259;50.214;18.620;2023-04-24T02:41:48;10.00;99.90
22678;DHT22;26259;50.214;18.620;2023-04-24T02:44:14;10.00;99.90
22678;DHT22;26259;50.214;18.620;2023-04-24T02:46:39;10.00;99.90
22678;DHT22;26259;50.214;18.620;2023-04-24T02:49:06;10.00;99.90
22678;DHT22;26259;50.214;18.620;2023-04-24T02:51:32;10.00;99.90
22678;DHT22;26259;50.214;18.620;2023-04-24T02:53:57;10.00;99.90
22678;DHT22;26259;50.214;18.620;2023-04-24T02:56:23;10.00;99.90
22678;DHT22;26259;50.214;18.620;2023-04-24T02:58:48;10.00;99.90
22678;DHT22;26259;50.214;18.620;2023-04-24T03:01:14;10.00;99.90
22678;DHT22;26259;50.214;18.620;2023-04-24T03:03:40;10.00;99.90
22678;DHT22;26259;50.214;18.620;2023-04-24T03:06:05;10.00;99.90
22678;DHT22;26259;50.214;18.620;2023-04-24T03:08:33;10.10;99.90
22678;DHT22;26259;50.214;18.620;2023-04-24T03:10:59;10.10;99.90
22678;DHT22;26259;50.214;18.620;2023-04-24T03:13:25;10.10;99.90
22678;DHT22;26259;50.214;18.620;2023-04-24T03:15:50;10.00;99.90
22678;DHT22;26259;50.214;18.620;2023-04-24T03:18:16;10.00;99.90
22678;DHT22;26259;50.214;18.620;2023-04-24T03:20:41;10.00;99.90
22678;DHT22;26259;50.214;18.620;2023-04-24T03:23:07;9.90;99.90
22678;DHT22;26259;50.214;18.620;2023-04-24T03:25:32;9.90;99.90
22678;DHT22;26259;50.214;18.620;2023-04-24T03:27:58;10.00;99.90
22678;DHT22;26259;50.214;18.620;2023-04-24T03:30:23;10.00;99.90
22678;DHT22;26259;50.214;18.620;2023-04-24T03:32:49;9.90;99.90
22678;DHT22;26259;50.214;18.620;2023-04-24T03:35:15;9.90;99.90
22678;DHT22;26259;50.214;18.620;2023-04-24T03:37:40;9.80;99.90
22678;DHT22;26259;50.214;18.620;2023-04-24T03:40:06;9.80;99.90
22678;DHT22;26259;50.214;18.620;2023-04-24T03:42:33;9.90;99.90
22678;DHT22;26259;50.214;18.620;2023-04-24T03:44:58;9.90;99.90
22678;DHT22;26259;50.214;18.620;2023-04-24T03:47:24;9.90;99.90
22678;DHT22;26259;50.214;18.620;2023-04-24T03:49:50;9.90;99.90
22678;DHT22;26259;50.214;18.620;2023-04-24T03:52:15;10.00;99.90
22678;DHT22;26259;50.214;18.620;2023-04-24T03:54:41;10.00;99.90
22678;DHT22;26259;50.214;18.620;2023-04-24T03:57:06;9.90;99.90
22678;DHT22;26259;50.214;18.620;2023-04-24T03:59:32;10.00;99.90
22678;DHT22;26259;50.214;18.620;2023-04-24T04:01:57;10.00;99.90
22678;DHT22;26259;50.214;18.620;2023-04-24T04:04:23;10.10;99.90
22678;DHT22;26259;50.214;18.620;2023-04-24T04:06:48;10.10;99.90
22678;DHT22;26259;50.214;18.620;2023-04-24T04:09:14;10.20;99.90
22678;DHT22;26259;50.214;18.620;2023-04-24T04:11:40;10.20;99.90
22678;DHT22;26259;50.214;18.620;2023-04-24T04:14:06;10.30;99.90
22678;DHT22;26259;50.214;18.620;2023-04-24T04:16:31;10.40;99.90
22678;DHT22;26259;50.214;18.620;2023-04-24T04:18:57;10.40;99.90
22678;DHT22;26259;50.214;18.620;2023-04-24T04:21:22;10.50;99.90
22678;DHT22;26259;50.214;18.620;2023-04-24T04:23:48;10.60;99.90
22678;DHT22;26259;50.214;18.620;2023-04-24T04:26:14;10.70;99.90
22678;DHT22;26259;50.214;18.620;2023-04-24T04:28:39;10.60;99.90
22678;DHT22;26259;50.214;18.620;2023-04-24T04:31:05;10.70;99.90
22678;DHT22;26259;50.214;18.620;2023-04-24T04:33:33;10.70;99.90
22678;DHT22;26259;50.214;18.620;2023-04-24T04:35:59;10.80;99.90
22678;DHT22;26259;50.214;18.620;2023-04-24T04:38:25;10.80;99.90
22678;DHT22;26259;50.214;18.620;2023-04-24T04:40:55;10.80;99.90
22678;DHT22;26259;50.214;18.620;2023-04-24T04:43:23;10.90;99.90
22678;DHT22;26259;50.214;18.620;2023-04-24T04:45:49;11.00;99.90
22678;DHT22;26259;50.214;18.620;2023-04-24T04:48:17;11.00;99.90
22678;DHT22;26259;50.214;18.620;2023-04-24T04:50:43;11.00;99.90
22678;DHT22;26259;50.214;18.620;2023-04-24T04:53:08;11.10;99.90
22678;DHT22;26259;50.214;18.620;2023-04-24T04:55:34;11.10;99.90
22678;DHT22;26259;50.214;18.620;2023-04-24T04:58:00;11.20;99.90
22678;DHT22;26259;50.214;18.620;2023-04-24T05:00:26;11.30;99.90
22678;DHT22;26259;50.214;18.620;2023-04-24T05:02:52;11.40;99.90
22678;DHT22;26259;50.214;18.620;2023-04-24T05:05:18;11.50;99.90
22678;DHT22;26259;50.214;18.620;2023-04-24T05:07:44;11.60;99.90
22678;DHT22;26259;50.214;18.620;2023-04-24T05:10:10;11.80;99.90
22678;DHT22;26259;50.214;18.620;2023-04-24T05:12:36;11.90;99.90
22678;DHT22;26259;50.214;18.620;2023-04-24T05:15:02;12.00;99.90
22678;DHT22;26259;50.214;18.620;2023-04-24T05:17:28;12.20;99.90
22678;DHT22;26259;50.214;18.620;2023-04-24T05:19:54;12.30;99.90
22678;DHT22;26259;50.214;18.620;2023-04-24T05:22:19;12.50;99.90
22678;DHT22;26259;50.214;18.620;2023-04-24T05:24:46;12.70;99.90
22678;DHT22;26259;50.214;18.620;2023-04-24T05:27:12;13.00;99.90
22678;DHT22;26259;50.214;18.620;2023-04-24T05:29:38;13.20;99.90
22678;DHT22;26259;50.214;18.620;2023-04-24T05:32:03;13.50;99.90
22678;DHT22;26259;50.214;18.620;2023-04-24T05:34:29;13.80;99.90
22678;DHT22;26259;50.214;18.620;2023-04-24T05:36:55;14.00;99.90
22678;DHT22;26259;50.214;18.620;2023-04-24T05:39:21;14.30;99.90
22678;DHT22;26259;50.214;18.620;2023-04-24T05:41:46;14.60;99.90
22678;DHT22;26259;50.214;18.620;2023-04-24T05:44:12;14.80;99.90
22678;DHT22;26259;50.214;18.620;2023-04-24T05:46:37;15.10;99.90
22678;DHT22;26259;50.214;18.620;2023-04-24T05:49:03;15.30;99.90
22678;DHT22;26259;50.214;18.620;2023-04-24T05:51:28;15.50;99.90
22678;DHT22;26259;50.214;18.620;2023-04-24T05:53:54;15.60;99.90
22678;DHT22;26259;50.214;18.620;2023-04-24T05:56:20;15.80;99.90
22678;DHT22;26259;50.214;18.620;2023-04-24T05:58:46;16.10;99.90
22678;DHT22;26259;50.214;18.620;2023-04-24T06:01:12;16.40;99.90
22678;DHT22;26259;50.214;18.620;2023-04-24T06:03:40;16.60;99.90
22678;DHT22;26259;50.214;18.620;2023-04-24T06:06:07;16.90;99.90
22678;DHT22;26259;50.214;18.620;2023-04-24T06:08:32;17.30;99.90
22678;DHT22;26259;50.214;18.620;2023-04-24T06:10:58;17.60;99.90
22678;DHT22;26259;50.214;18.620;2023-04-24T06:13:24;17.80;99.90
22678;DHT22;26259;50.214;18.620;2023-04-24T06:15:50;17.90;99.90
22678;DHT22;26259;50.214;18.620;2023-04-24T06:18:15;18.20;99.90
22678;DHT22;26259;50.214;18.620;2023-04-24T06:20:41;18.40;99.20
22678;DHT22;26259;50.214;18.620;2023-04-24T06:23:06;18.70;81.50
22678;DHT22;26259;50.214;18.620;2023-04-24T06:25:32;18.90;58.60
22678;DHT22;26259;50.214;18.620;2023-04-24T06:27:58;19.00;68.80
22678;DHT22;26259;50.214;18.620;2023-04-24T06:30:23;19.30;64.30
22678;DHT22;26259;50.214;18.620;2023-04-24T06:32:49;19.50;52.70
22678;DHT22;26259;50.214;18.620;2023-04-24T06:35:14;19.60;48.50
22678;DHT22;26259;50.214;18.620;2023-04-24T06:37:42;19.80;45.60
22678;DHT22;26259;50.214;18.620;2023-04-24T06:40:08;19.90;45.50
22678;DHT22;26259;50.214;18.620;2023-04-24T06:42:34;20.00;43.50
22678;DHT22;26259;50.214;18.620;2023-04-24T06:45:00;20.10;45.40
22678;DHT22;26259;50.214;18.620;2023-04-24T06:47:26;19.90;44.90
22678;DHT22;26259;50.214;18.620;2023-04-24T06:49:51;19.60;50.70
22678;DHT22;26259;50.214;18.620;2023-04-24T06:52:18;19.70;51.30
22678;DHT22;26259;50.214;18.620;2023-04-24T06:54:44;20.00;47.00
22678;DHT22;26259;50.214;18.620;2023-04-24T06:57:09;20.20;45.50
22678;DHT22;26259;50.214;18.620;2023-04-24T06:59:36;20.20;49.20
22678;DHT22;26259;50.214;18.620;2023-04-24T07:02:01;20.30;46.70
22678;DHT22;26259;50.214;18.620;2023-04-24T07:04:27;20.40;45.00
22678;DHT22;26259;50.214;18.620;2023-04-24T07:06:53;20.60;43.40
22678;DHT22;26259;50.214;18.620;2023-04-24T07:09:24;20.50;40.60
22678;DHT22;26259;50.214;18.620;2023-04-24T07:11:51;20.60;42.10
22678;DHT22;26259;50.214;18.620;2023-04-24T07:14:17;20.60;47.10
22678;DHT22;26259;50.214;18.620;2023-04-24T07:16:43;20.30;41.20
22678;DHT22;26259;50.214;18.620;2023-04-24T07:19:09;20.10;48.60
22678;DHT22;26259;50.214;18.620;2023-04-24T07:21:34;20.30;45.20
22678;DHT22;26259;50.214;18.620;2023-04-24T07:24:00;20.30;46.20
22678;DHT22;26259;50.214;18.620;2023-04-24T07:26:27;20.40;44.40
22678;DHT22;26259;50.214;18.620;2023-04-24T07:28:53;20.50;46.80
22678;DHT22;26259;50.214;18.620;2023-04-24T07:31:19;20.70;47.40
22678;DHT22;26259;50.214;18.620;2023-04-24T07:33:44;20.60;50.00
22678;DHT22;26259;50.214;18.620;2023-04-24T07:36:11;20.50;39.80
22678;DHT22;26259;50.214;18.620;2023-04-24T07:38:41;20.50;44.60
22678;DHT22;26259;50.214;18.620;2023-04-24T07:41:07;20.50;48.10
22678;DHT22;26259;50.214;18.620;2023-04-24T07:43:33;20.50;40.80
22678;DHT22;26259;50.214;18.620;2023-04-24T07:45:58;20.40;39.60
22678;DHT22;26259;50.214;18.620;2023-04-24T07:48:24;20.40;46.30
22678;DHT22;26259;50.214;18.620;2023-04-24T07:50:51;20.60;44.50
22678;DHT22;26259;50.214;18.620;2023-04-24T07:53:17;20.80;39.50
22678;DHT22;26259;50.214;18.620;2023-04-24T07:55:43;21.00;38.20
22678;DHT22;26259;50.214;18.620;2023-04-24T07:58:08;21.10;38.60
22678;DHT22;26259;50.214;18.620;2023-04-24T08:00:34;21.10;45.30
22678;DHT22;26259;50.214;18.620;2023-04-24T08:03:00;21.00;39.60
22678;DHT22;26259;50.214;18.620;2023-04-24T08:05:26;20.90;34.70
22678;DHT22;26259;50.214;18.620;2023-04-24T08:07:52;20.70;40.60
22678;DHT22;26259;50.214;18.620;2023-04-24T08:10:18;20.60;43.70
22678;DHT22;26259;50.214;18.620;2023-04-24T08:12:43;20.60;35.10
22678;DHT22;26259;50.214;18.620;2023-04-24T08:15:09;20.60;36.40
22678;DHT22;26259;50.214;18.620;2023-04-24T08:17:35;20.60;41.70
22678;DHT22;26259;50.214;18.620;2023-04-24T08:20:04;20.70;36.50
22678;DHT22;26259;50.214;18.620;2023-04-24T08:22:31;20.60;37.30
22678;DHT22;26259;50.214;18.620;2023-04-24T08:24:57;20.70;47.30
22678;DHT22;26259;50.214;18.620;2023-04-24T08:27:23;20.90;40.00
22678;DHT22;26259;50.214;18.620;2023-04-24T08:29:49;21.00;41.10
22678;DHT22;26259;50.214;18.620;2023-04-24T08:32:15;21.10;38.10
22678;DHT22;26259;50.214;18.620;2023-04-24T08:34:41;21.00;33.40
22678;DHT22;26259;50.214;18.620;2023-04-24T08:37:06;21.00;35.40
22678;DHT22;26259;50.214;18.620;2023-04-24T08:39:32;21.20;40.20
22678;DHT22;26259;50.214;18.620;2023-04-24T08:41:59;21.40;40.00
22678;DHT22;26259;50.214;18.620;2023-04-24T08:44:32;21.40;37.50
22678;DHT22;26259;50.214;18.620;2023-04-24T08:46:58;21.50;30.00
22678;DHT22;26259;50.214;18.620;2023-04-24T08:49:24;21.70;33.60
22678;DHT22;26259;50.214;18.620;2023-04-24T08:51:52;21.90;33.00
22678;DHT22;26259;50.214;18.620;2023-04-24T08:54:18;22.10;36.70
22678;DHT22;26259;50.214;18.620;2023-04-24T08:56:44;22.10;40.90
22678;DHT22;26259;50.214;18.620;2023-04-24T08:59:13;21.90;31.80
22678;DHT22;26259;50.214;18.620;2023-04-24T09:01:40;21.90;36.90
22678;DHT22;26259;50.214;18.620;2023-04-24T09:04:07;21.90;39.50
22678;DHT22;26259;50.214;18.620;2023-04-24T09:06:35;22.00;32.10
22678;DHT22;26259;50.214;18.620;2023-04-24T09:09:01;22.00;33.20
22678;DHT22;26259;50.214;18.620;2023-04-24T09:11:30;22.00;36.90
22678;DHT22;26259;50.214;18.620;2023-04-24T09:13:56;21.80;36.40
22678;DHT22;26259;50.214;18.620;2023-04-24T09:16:22;21.90;41.90
22678;DHT22;26259;50.214;18.620;2023-04-24T09:18:50;22.10;37.50
22678;DHT22;26259;50.214;18.620;2023-04-24T09:21:15;22.60;35.10
22678;DHT22;26259;50.214;18.620;2023-04-24T09:23:41;22.90;31.50
22678;DHT22;26259;50.214;18.620;2023-04-24T09:26:09;23.30;30.90
22678;DHT22;26259;50.214;18.620;2023-04-24T09:28:37;23.70;27.40
22678;DHT22;26259;50.214;18.620;2023-04-24T09:31:14;23.60;25.80
22678;DHT22;26259;50.214;18.620;2023-04-24T09:33:57;23.50;28.50
22678;DHT22;26259;50.214;18.620;2023-04-24T09:36:28;23.40;25.50
22678;DHT22;26259;50.214;18.620;2023-04-24T09:38:58;23.60;29.40
22678;DHT22;26259;50.214;18.620;2023-04-24T09:41:24;23.80;27.60
22678;DHT22;26259;50.214;18.620;2023-04-24T09:43:50;23.90;24.60
22678;DHT22;26259;50.214;18.620;2023-04-24T09:46:18;24.20;26.30
22678;DHT22;26259;50.214;18.620;2023-04-24T09:48:43;24.20;26.50
22678;DHT22;26259;50.214;18.620;2023-04-24T09:51:09;24.20;26.00
22678;DHT22;26259;50.214;18.620;2023-04-24T09:53:38;24.50;24.60
22678;DHT22;26259;50.214;18.620;2023-04-24T09:56:09;24.00;23.60
22678;DHT22;26259;50.214;18.620;2023-04-24T09:58:38;24.00;27.00
22678;DHT22;26259;50.214;18.620;2023-04-24T10:01:04;23.50;24.20
22678;DHT22;26259;50.214;18.620;2023-04-24T10:03:31;22.90;28.80
22678;DHT22;26259;50.214;18.620;2023-04-24T10:06:04;22.50;31.70
22678;DHT22;26259;50.214;18.620;2023-04-24T10:08:35;22.30;28.10
22678;DHT22;26259;50.214;18.620;2023-04-24T10:11:01;22.10;30.30
22678;DHT22;26259;50.214;18.620;2023-04-24T10:13:28;21.80;34.30
22678;DHT22;26259;50.214;18.620;2023-04-24T10:15:54;21.80;31.10
22678;DHT22;26259;50.214;18.620;2023-04-24T10:18:21;21.80;33.30
22678;DHT22;26259;50.214;18.620;2023-04-24T10:20:47;21.80;35.50
22678;DHT22;26259;50.214;18.620;2023-04-24T10:23:13;21.70;41.70
22678;DHT22;26259;50.214;18.620;2023-04-24T10:25:39;21.60;37.30
22678;DHT22;26259;50.214;18.620;2023-04-24T10:28:05;21.60;39.50
22678;DHT22;26259;50.214;18.620;2023-04-24T10:30:33;21.70;31.80
22678;DHT22;26259;50.214;18.620;2023-04-24T10:33:05;21.80;35.50
22678;DHT22;26259;50.214;18.620;2023-04-24T10:35:34;21.60;39.40
22678;DHT22;26259;50.214;18.620;2023-04-24T10:38:08;21.20;38.80
22678;DHT22;26259;50.214;18.620;2023-04-24T10:40:35;21.10;41.10
22678;DHT22;26259;50.214;18.620;2023-04-24T10:43:08;21.00;42.80
22678;DHT22;26259;50.214;18.620;2023-04-24T10:45:37;20.90;51.70
22678;DHT22;26259;50.214;18.620;2023-04-24T10:48:04;20.80;56.00
22678;DHT22;26259;50.214;18.620;2023-04-24T10:50:53;20.80;47.70
22678;DHT22;26259;50.214;18.620;2023-04-24T10:53:27;20.70;42.30
22678;DHT22;26259;50.214;18.620;2023-04-24T10:55:57;20.70;51.60
22678;DHT22;26259;50.214;18.620;2023-04-24T10:58:24;20.70;64.30
22678;DHT22;26259;50.214;18.620;2023-04-24T11:00:58;20.60;60.70
22678;DHT22;26259;50.214;18.620;2023-04-24T11:03:25;20.80;65.00
22678;DHT22;26259;50.214;18.620;2023-04-24T11:06:07;20.80;65.80
22678;DHT22;26259;50.214;18.620;2023-04-24T11:08:43;20.70;67.00
22678;DHT22;26259;50.214;18.620;2023-04-24T11:16:43;20.70;57.40
22678;DHT22;26259;50.214;18.620;2023-04-24T11:21:57;20.80;53.60
22678;DHT22;26259;50.214;18.620;2023-04-24T11:27:00;20.70;54.10
22678;DHT22;26259;50.214;18.620;2023-04-24T11:37:42;20.60;57.00
22678;DHT22;26259;50.214;18.620;2023-04-24T11:40:10;20.50;54.60
22678;DHT22;26259;50.214;18.620;2023-04-24T11:42:40;20.70;55.80
22678;DHT22;26259;50.214;18.620;2023-04-24T11:45:17;20.90;48.30
22678;DHT22;26259;50.214;18.620;2023-04-24T11:47:44;21.00;49.00
22678;DHT22;26259;50.214;18.620;2023-04-24T11:50:12;21.00;48.10
22678;DHT22;26259;50.214;18.620;2023-04-24T11:52:39;21.00;49.40
22678;DHT22;26259;50.214;18.620;2023-04-24T11:55:23;21.00;50.80
22678;DHT22;26259;50.214;18.620;2023-04-24T11:57:53;21.10;49.60
22678;DHT22;26259;50.214;18.620;2023-04-24T12:00:23;21.00;55.40
22678;DHT22;26259;50.214;18.620;2023-04-24T12:02:50;20.90;51.60
22678;DHT22;26259;50.214;18.620;2023-04-24T12:07:46;20.70;48.90
22678;DHT22;26259;50.214;18.620;2023-04-24T12:10:11;20.60;53.00
22678;DHT22;26259;50.214;18.620;2023-04-24T12:12:37;20.40;61.20
22678;DHT22;26259;50.214;18.620;2023-04-24T12:15:07;20.30;61.60
22678;DHT22;26259;50.214;18.620;2023-04-24T12:17:34;19.90;73.70
22678;DHT22;26259;50.214;18.620;2023-04-24T12:20:06;19.90;73.40
22678;DHT22;26259;50.214;18.620;2023-04-24T12:22:52;19.90;70.40
22678;DHT22;26259;50.214;18.620;2023-04-24T12:25:23;19.80;70.80
22678;DHT22;26259;50.214;18.620;2023-04-24T12:28:10;19.60;74.50
22678;DHT22;26259;50.214;18.620;2023-04-24T12:30:42;19.60;68.80
22678;DHT22;26259;50.214;18.620;2023-04-24T12:33:10;19.60;72.90
22678;DHT22;26259;50.214;18.620;2023-04-24T12:35:35;19.60;80.40
22678;DHT22;26259;50.214;18.620;2023-04-24T12:38:11;19.70;82.70
22678;DHT22;26259;50.214;18.620;2023-04-24T12:40:38;19.90;91.00
22678;DHT22;26259;50.214;18.620;2023-04-24T12:43:17;19.80;85.00
22678;DHT22;26259;50.214;18.620;2023-04-24T12:45:44;19.70;84.60
22678;DHT22;26259;50.214;18.620;2023-04-24T12:48:12;19.60;84.80
22678;DHT22;26259;50.214;18.620;2023-04-24T12:50:42;19.70;81.30
22678;DHT22;26259;50.214;18.620;2023-04-24T12:53:08;19.70;84.70
22678;DHT22;26259;50.214;18.620;2023-04-24T12:55:34;19.90;82.50
22678;DHT22;26259;50.214;18.620;2023-04-24T12:58:00;19.90;89.60
22678;DHT22;26259;50.214;18.620;2023-04-24T13:00:25;19.90;88.00
22678;DHT22;26259;50.214;18.620;2023-04-24T13:02:51;19.60;80.90
22678;DHT22;26259;50.214;18.620;2023-04-24T13:05:17;19.40;88.20
22678;DHT22;26259;50.214;18.620;2023-04-24T13:07:42;19.40;90.70
22678;DHT22;26259;50.214;18.620;2023-04-24T13:10:08;19.50;87.40
22678;DHT22;26259;50.214;18.620;2023-04-24T13:12:35;19.40;91.30
22678;DHT22;26259;50.214;18.620;2023-04-24T13:15:00;19.40;86.60
22678;DHT22;26259;50.214;18.620;2023-04-24T13:17:26;19.30;90.70
22678;DHT22;26259;50.214;18.620;2023-04-24T13:19:53;19.30;93.00
22678;DHT22;26259;50.214;18.620;2023-04-24T13:22:20;19.20;91.40
22678;DHT22;26259;50.214;18.620;2023-04-24T13:24:46;18.90;96.50
22678;DHT22;26259;50.214;18.620;2023-04-24T13:27:14;18.80;98.30
22678;DHT22;26259;50.214;18.620;2023-04-24T13:29:40;18.40;99.90
22678;DHT22;26259;50.214;18.620;2023-04-24T13:32:06;18.50;99.90
22678;DHT22;26259;50.214;18.620;2023-04-24T13:34:32;18.50;99.90
22678;DHT22;26259;50.214;18.620;2023-04-24T13:36:58;18.50;99.90
22678;DHT22;26259;50.214;18.620;2023-04-24T13:39:24;18.50;99.90
22678;DHT22;26259;50.214;18.620;2023-04-24T13:41:50;18.60;99.90
22678;DHT22;26259;50.214;18.620;2023-04-24T13:44:17;18.20;99.90
22678;DHT22;26259;50.214;18.620;2023-04-24T13:46:44;18.10;99.90
22678;DHT22;26259;50.214;18.620;2023-04-24T13:49:11;18.00;99.90
22678;DHT22;26259;50.214;18.620;2023-04-24T13:51:36;17.90;99.90
22678;DHT22;26259;50.214;18.620;2023-04-24T13:54:02;17.70;99.90
22678;DHT22;26259;50.214;18.620;2023-04-24T13:56:28;17.50;99.90
22678;DHT22;26259;50.214;18.620;2023-04-24T13:58:53;17.30;99.90
22678;DHT22;26259;50.214;18.620;2023-04-24T14:01:22;17.40;99.90
22678;DHT22;26259;50.214;18.620;2023-04-24T14:03:51;17.40;99.90
22678;DHT22;26259;50.214;18.620;2023-04-24T14:06:21;17.30;99.90
22678;DHT22;26259;50.214;18.620;2023-04-24T14:08:47;17.20;99.90
22678;DHT22;26259;50.214;18.620;2023-04-24T14:11:13;17.10;99.90
22678;DHT22;26259;50.214;18.620;2023-04-24T14:13:40;17.00;99.90
22678;DHT22;26259;50.214;18.620;2023-04-24T14:16:06;16.90;99.90
22678;DHT22;26259;50.214;18.620;2023-04-24T14:18:32;16.70;99.90
22678;DHT22;26259;50.214;18.620;2023-04-24T14:20:57;16.70;99.90
22678;DHT22;26259;50.214;18.620;2023-04-24T14:23:23;16.40;99.90
22678;DHT22;26259;50.214;18.620;2023-04-24T14:25:49;16.30;99.90
22678;DHT22;26259;50.214;18.620;2023-04-24T14:28:18;16.00;99.90
22678;DHT22;26259;50.214;18.620;2023-04-24T14:30:44;15.90;99.90
22678;DHT22;26259;50.214;18.620;2023-04-24T14:33:10;15.90;99.90
22678;DHT22;26259;50.214;18.620;2023-04-24T14:35:36;15.90;99.90
22678;DHT22;26259;50.214;18.620;2023-04-24T14:38:01;15.80;99.90
22678;DHT22;26259;50.214;18.620;2023-04-24T14:40:27;15.70;99.90
22678;DHT22;26259;50.214;18.620;2023-04-24T14:42:53;15.70;99.90
22678;DHT22;26259;50.214;18.620;2023-04-24T14:45:19;15.80;99.90
22678;DHT22;26259;50.214;18.620;2023-04-24T14:47:45;15.80;99.90
22678;DHT22;26259;50.214;18.620;2023-04-24T14:50:10;15.80;99.90
22678;DHT22;26259;50.214;18.620;2023-04-24T14:52:38;15.80;99.90
22678;DHT22;26259;50.214;18.620;2023-04-24T14:55:04;15.80;99.90
22678;DHT22;26259;50.214;18.620;2023-04-24T14:57:29;15.70;99.90
22678;DHT22;26259;50.214;18.620;2023-04-24T14:59:55;15.60;99.90
22678;DHT22;26259;50.214;18.620;2023-04-24T15:02:21;15.60;99.90
22678;DHT22;26259;50.214;18.620;2023-04-24T15:04:46;15.60;99.90
22678;DHT22;26259;50.214;18.620;2023-04-24T15:07:12;15.60;99.90
22678;DHT22;26259;50.214;18.620;2023-04-24T15:09:37;15.50;99.90
22678;DHT22;26259;50.214;18.620;2023-04-24T15:12:03;15.30;99.90
22678;DHT22;26259;50.214;18.620;2023-04-24T15:14:29;15.30;99.90
22678;DHT22;26259;50.214;18.620;2023-04-24T15:16:55;15.30;99.90
22678;DHT22;26259;50.214;18.620;2023-04-24T15:19:21;15.20;99.90
22678;DHT22;26259;50.214;18.620;2023-04-24T15:21:46;15.20;99.90
22678;DHT22;26259;50.214;18.620;2023-04-24T15:24:12;15.20;99.90
22678;DHT22;26259;50.214;18.620;2023-04-24T15:26:37;15.10;99.90
22678;DHT22;26259;50.214;18.620;2023-04-24T15:29:03;15.10;99.90
22678;DHT22;26259;50.214;18.620;2023-04-24T15:31:28;15.00;99.90
22678;DHT22;26259;50.214;18.620;2023-04-24T15:33:54;15.00;99.90
22678;DHT22;26259;50.214;18.620;2023-04-24T15:36:20;15.00;99.90
22678;DHT22;26259;50.214;18.620;2023-04-24T15:38:47;15.00;99.90